sensor_id;sensor_type;location;lat;lon;timestamp;temperature;humidity
12682;DHT22;6405;59.208;18.216;2023-03-14T00:00:35;4.20;99.90
12682;DHT22;6405;59.208;18.216;2023-03-14T00:03:01;4.30;99.90
12682;DHT22;6405;59.208;18.216;2023-03-14T00:05:27;4.30;99.90
12682;DHT22;6405;59.208;18.216;2023-03-14T00:07:53;4.40;99.90
12682;DHT22;6405;59.208;18.216;2023-03-14T00:10:19;4.50;99.90
12682;DHT22;6405;59.208;18.216;2023-03-14T00:12:45;4.30;99.90
12682;DHT22;6405;59.208;18.216;2023-03-14T00:15:11;4.40;99.90
12682;DHT22;6405;59.208;18.216;2023-03-14T00:17:37;4.40;99.90
12682;DHT22;6405;59.208;18.216;2023-03-14T00:20:06;4.40;99.90
12682;DHT22;6405;59.208;18.216;2023-03-14T00:22:40;4.40;99.90
12682;DHT22;6405;59.208;18.216;2023-03-14T00:25:08;4.30;99.90
12682;DHT22;6405;59.208;18.216;2023-03-14T00:27:34;4.30;99.90
12682;DHT22;6405;59.208;18.216;2023-03-14T00:30:00;4.20;99.90
12682;DHT22;6405;59.208;18.216;2023-03-14T00:32:25;4.20;99.90
12682;DHT22;6405;59.208;18.216;2023-03-14T00:34:51;4.30;99.90
12682;DHT22;6405;59.208;18.216;2023-03-14T00:37:17;4.30;99.90
12682;DHT22;6405;59.208;18.216;2023-03-14T00:39:42;4.30;99.90
12682;DHT22;6405;59.208;18.216;2023-03-14T00:42:08;4.20;99.90
12682;DHT22;6405;59.208;18.216;2023-03-14T00:44:34;4.20;99.90
12682;DHT22;6405;59.208;18.216;2023-03-14T00:46:59;4.30;99.90
12682;DHT22;6405;59.208;18.216;2023-03-14T00:49:25;4.30;99.90
12682;DHT22;6405;59.208;18.216;2023-03-14T00:51:51;4.30;99.90
12682;DHT22;6405;59.208;18.216;2023-03-14T00:54:18;4.40;99.90
12682;DHT22;6405;59.208;18.216;2023-03-14T00:56:44;4.30;99.90
12682;DHT22;6405;59.208;18.216;2023-03-14T00:59:09;4.40;99.90
12682;DHT22;6405;59.208;18.216;2023-03-14T01:01:35;4.40;99.90
12682;DHT22;6405;59.208;18.216;2023-03-14T01:04:01;4.40;99.90
12682;DHT22;6405;59.208;18.216;2023-03-14T01:06:28;4.40;99.90
12682;DHT22;6405;59.208;18.216;2023-03-14T01:08:55;4.40;99.90
12682;DHT22;6405;59.208;18.216;2023-03-14T01:11:33;4.40;99.90
12682;DHT22;6405;59.208;18.216;2023-03-14T01:13:59;4.50;99.90
12682;DHT22;6405;59.208;18.216;2023-03-14T01:16:30;4.50;99.90
12682;DHT22;6405;59.208;18.216;2023-03-14T01:18:56;4.50;99.90
12682;DHT22;6405;59.208;18.216;2023-03-14T01:21:24;4.50;99.90
12682;DHT22;6405;59.208;18.216;2023-03-14T01:23:51;4.50;99.90
12682;DHT22;6405;59.208;18.216;2023-03-14T01:26:20;4.60;99.90
12682;DHT22;6405;59.208;18.216;2023-03-14T01:28:47;4.50;99.90
12682;DHT22;6405;59.208;18.216;2023-03-14T01:31:13;4.50;99.90
12682;DHT22;6405;59.208;18.216;2023-03-14T01:33:40;4.60;99.90
12682;DHT22;6405;59.208;18.216;2023-03-14T01:36:06;4.60;99.90
12682;DHT22;6405;59.208;18.216;2023-03-14T01:38:34;4.60;99.90
12682;DHT22;6405;59.208;18.216;2023-03-14T01:41:00;4.60;99.90
12682;DHT22;6405;59.208;18.216;2023-03-14T01:43:27;4.70;99.90
12682;DHT22;6405;59.208;18.216;2023-03-14T01:51:25;4.70;99.90
12682;DHT22;6405;59.208;18.216;2023-03-14T01:53:56;4.70;99.90
12682;DHT22;6405;59.208;18.216;2023-03-14T01:56:24;4.70;99.90
12682;DHT22;6405;59.208;18.216;2023-03-14T01:58:51;4.70;99.90
12682;DHT22;6405;59.208;18.216;2023-03-14T02:01:20;4.70;99.90
12682;DHT22;6405;59.208;18.216;2023-03-14T02:03:56;4.70;99.90
12682;DHT22;6405;59.208;18.216;2023-03-14T02:06:29;4.80;99.90
12682;DHT22;6405;59.208;18.216;2023-03-14T02:08:59;4.80;99.90
12682;DHT22;6405;59.208;18.216;2023-03-14T02:11:28;4.70;99.90
12682;DHT22;6405;59.208;18.216;2023-03-14T02:13:56;4.80;99.90
12682;DHT22;6405;59.208;18.216;2023-03-14T02:16:23;5.00;99.90
12682;DHT22;6405;59.208;18.216;2023-03-14T02:18:48;4.90;99.90
12682;DHT22;6405;59.208;18.216;2023-03-14T02:21:51;4.90;99.90
12682;DHT22;6405;59.208;18.216;2023-03-14T02:24:43;4.90;99.90
12682;DHT22;6405;59.208;18.216;2023-03-14T02:27:13;4.90;99.90
12682;DHT22;6405;59.208;18.216;2023-03-14T02:29:52;4.80;99.90
12682;DHT22;6405;59.208;18.216;2023-03-14T02:32:20;4.70;99.90
12682;DHT22;6405;59.208;18.216;2023-03-14T02:34:52;4.90;99.90
12682;DHT22;6405;59.208;18.216;2023-03-14T02:37:21;4.80;99.90
12682;DHT22;6405;59.208;18.216;2023-03-14T02:39:48;4.80;99.90
12682;DHT22;6405;59.208;18.216;2023-03-14T02:42:15;4.80;99.90
12682;DHT22;6405;59.208;18.216;2023-03-14T02:44:59;4.80;99.90
12682;DHT22;6405;59.208;18.216;2023-03-14T02:47:29;4.70;99.90
12682;DHT22;6405;59.208;18.216;2023-03-14T02:50:03;4.70;99.90
12682;DHT22;6405;59.208;18.216;2023-03-14T02:52:29;4.70;99.90
12682;DHT22;6405;59.208;18.216;2023-03-14T02:54:55;4.70;99.90
12682;DHT22;6405;59.208;18.216;2023-03-14T02:57:21;4.70;99.90
12682;DHT22;6405;59.208;18.216;2023-03-14T02:59:46;4.70;99.90
12682;DHT22;6405;59.208;18.216;2023-03-14T03:02:12;4.60;99.90
12682;DHT22;6405;59.208;18.216;2023-03-14T03:04:38;4.60;99.90
12682;DHT22;6405;59.208;18.216;2023-03-14T03:07:03;4.60;99.90
12682;DHT22;6405;59.208;18.216;2023-03-14T03:09:29;4.50;99.90
12682;DHT22;6405;59.208;18.216;2023-03-14T03:11:54;4.50;99.90
12682;DHT22;6405;59.208;18.216;2023-03-14T03:14:20;4.50;99.90
12682;DHT22;6405;59.208;18.216;2023-03-14T03:16:46;4.50;99.90
12682;DHT22;6405;59.208;18.216;2023-03-14T03:19:11;4.40;99.90
12682;DHT22;6405;59.208;18.216;2023-03-14T03:21:39;4.40;99.90
12682;DHT22;6405;59.208;18.216;2023-03-14T03:24:04;4.40;99.90
12682;DHT22;6405;59.208;18.216;2023-03-14T03:26:30;4.50;99.90
12682;DHT22;6405;59.208;18.216;2023-03-14T03:28:56;4.50;99.90
12682;DHT22;6405;59.208;18.216;2023-03-14T03:31:21;4.40;99.90
12682;DHT22;6405;59.208;18.216;2023-03-14T03:33:47;4.40;99.90
12682;DHT22;6405;59.208;18.216;2023-03-14T03:36:13;4.50;99.90
12682;DHT22;6405;59.208;18.216;2023-03-14T03:38:38;4.40;99.90
12682;DHT22;6405;59.208;18.216;2023-03-14T03:41:06;4.40;99.90
12682;DHT22;6405;59.208;18.216;2023-03-14T03:43:32;4.40;99.90
12682;DHT22;6405;59.208;18.216;2023-03-14T03:45:57;4.50;99.90
12682;DHT22;6405;59.208;18.216;2023-03-14T03:48:23;4.40;99.90
12682;DHT22;6405;59.208;18.216;2023-03-14T03:50:49;4.40;99.90
12682;DHT22;6405;59.208;18.216;2023-03-14T03:53:14;4.40;99.90
12682;DHT22;6405;59.208;18.216;2023-03-14T03:55:43;4.30;99.90
12682;DHT22;6405;59.208;18.216;2023-03-14T03:58:09;4.40;99.90
12682;DHT22;6405;59.208;18.216;2023-03-14T04:00:34;4.40;99.90
12682;DHT22;6405;59.208;18.216;2023-03-14T04:03:02;4.40;99.90
12682;DHT22;6405;59.208;18.216;2023-03-14T04:05:28;4.40;99.90
12682;DHT22;6405;59.208;18.216;2023-03-14T04:07:54;4.30;99.90
12682;DHT22;6405;59.208;18.216;2023-03-14T04:10:20;4.50;99.90
12682;DHT22;6405;59.208;18.216;2023-03-14T04:12:45;4.40;99.90
12682;DHT22;6405;59.208;18.216;2023-03-14T04:15:11;4.50;99.90
12682;DHT22;6405;59.208;18.216;2023-03-14T04:17:37;4.50;99.90
12682;DHT22;6405;59.208;18.216;2023-03-14T04:20:03;4.50;99.90
12682;DHT22;6405;59.208;18.216;2023-03-14T04:22:30;4.50;99.90
12682;DHT22;6405;59.208;18.216;2023-03-14T04:24:55;4.50;99.90
12682;DHT22;6405;59.208;18.216;2023-03-14T04:27:21;4.50;99.90
12682;DHT22;6405;59.208;18.216;2023-03-14T04:29:46;4.50;99.90
12682;DHT22;6405;59.208;18.216;2023-03-14T04:32:12;4.50;99.90
12682;DHT22;6405;59.208;18.216;2023-03-14T04:34:38;4.50;99.90
12682;DHT22;6405;59.208;18.216;2023-03-14T04:37:03;4.40;99.90
12682;DHT22;6405;59.208;18.216;2023-03-14T04:39:29;4.40;99.90
12682;DHT22;6405;59.208;18.216;2023-03-14T04:41:54;4.40;99.90
12682;DHT22;6405;59.208;18.216;2023-03-14T04:44:20;4.40;99.90
12682;DHT22;6405;59.208;18.216;2023-03-14T04:46:46;4.40;99.90
12682;DHT22;6405;59.208;18.216;2023-03-14T04:49:11;4.40;99.90
12682;DHT22;6405;59.208;18.216;2023-03-14T04:51:37;4.50;99.90
12682;DHT22;6405;59.208;18.216;2023-03-14T04:54:03;4.50;99.90
12682;DHT22;6405;59.208;18.216;2023-03-14T04:56:28;4.50;99.90
12682;DHT22;6405;59.208;18.216;2023-03-14T04:58:54;4.50;99.90
12682;DHT22;6405;59.208;18.216;2023-03-14T05:01:19;4.50;99.90
12682;DHT22;6405;59.208;18.216;2023-03-14T05:03:45;4.50;99.90
12682;DHT22;6405;59.208;18.216;2023-03-14T05:06:11;4.50;99.90
12682;DHT22;6405;59.208;18.216;2023-03-14T05:08:37;4.50;99.90
12682;DHT22;6405;59.208;18.216;2023-03-14T05:11:02;4.50;99.90
12682;DHT22;6405;59.208;18.216;2023-03-14T05:13:28;4.50;99.90
12682;DHT22;6405;59.208;18.216;2023-03-14T05:16:01;4.40;99.90
12682;DHT22;6405;59.208;18.216;2023-03-14T05:18:28;4.50;99.90
12682;DHT22;6405;59.208;18.216;2023-03-14T05:20:54;4.50;99.90
12682;DHT22;6405;59.208;18.216;2023-03-14T05:23:19;4.50;99.90
12682;DHT22;6405;59.208;18.216;2023-03-14T05:25:45;4.50;99.90
12682;DHT22;6405;59.208;18.216;2023-03-14T05:28:10;4.50;99.90
12682;DHT22;6405;59.208;18.216;2023-03-14T05:30:36;4.60;99.90
12682;DHT22;6405;59.208;18.216;2023-03-14T05:33:02;4.50;99.90
12682;DHT22;6405;59.208;18.216;2023-03-14T05:35:28;4.40;99.90
12682;DHT22;6405;59.208;18.216;2023-03-14T05:37:53;4.50;99.90
12682;DHT22;6405;59.208;18.216;2023-03-14T05:40:19;4.40;99.90
12682;DHT22;6405;59.208;18.216;2023-03-14T05:42:45;4.40;99.90
12682;DHT22;6405;59.208;18.216;2023-03-14T05:45:11;4.30;99.90
12682;DHT22;6405;59.208;18.216;2023-03-14T05:47:36;4.40;99.90
12682;DHT22;6405;59.208;18.216;2023-03-14T05:50:02;4.40;99.90
12682;DHT22;6405;59.208;18.216;2023-03-14T05:52:28;4.40;99.90
12682;DHT22;6405;59.208;18.216;2023-03-14T05:54:54;4.50;99.90
12682;DHT22;6405;59.208;18.216;2023-03-14T05:57:20;4.50;99.90
12682;DHT22;6405;59.208;18.216;2023-03-14T05:59:46;4.50;99.90
12682;DHT22;6405;59.208;18.216;2023-03-14T06:02:11;4.50;99.90
12682;DHT22;6405;59.208;18.216;2023-03-14T06:04:37;4.60;99.90
12682;DHT22;6405;59.208;18.216;2023-03-14T06:07:02;4.50;99.90
12682;DHT22;6405;59.208;18.216;2023-03-14T06:09:28;4.50;99.90
12682;DHT22;6405;59.208;18.216;2023-03-14T06:11:54;4.60;99.90
12682;DHT22;6405;59.208;18.216;2023-03-14T06:14:19;4.60;99.90
12682;DHT22;6405;59.208;18.216;2023-03-14T06:16:45;4.60;99.90
12682;DHT22;6405;59.208;18.216;2023-03-14T06:19:13;4.70;99.90
12682;DHT22;6405;59.208;18.216;2023-03-14T06:21:39;4.60;99.90
12682;DHT22;6405;59.208;18.216;2023-03-14T06:24:04;4.60;99.90
12682;DHT22;6405;59.208;18.216;2023-03-14T06:26:31;4.60;99.90
12682;DHT22;6405;59.208;18.216;2023-03-14T06:28:56;4.60;99.90
12682;DHT22;6405;59.208;18.216;2023-03-14T06:31:22;4.70;99.90
12682;DHT22;6405;59.208;18.216;2023-03-14T06:33:47;4.60;99.90
12682;DHT22;6405;59.208;18.216;2023-03-14T06:36:13;4.50;99.90
12682;DHT22;6405;59.208;18.216;2023-03-14T06:38:39;4.40;99.90
12682;DHT22;6405;59.208;18.216;2023-03-14T06:41:06;4.40;99.90
12682;DHT22;6405;59.208;18.216;2023-03-14T06:43:32;4.40;99.90
12682;DHT22;6405;59.208;18.216;2023-03-14T06:45:58;4.40;99.90
12682;DHT22;6405;59.208;18.216;2023-03-14T06:48:23;4.40;99.90
12682;DHT22;6405;59.208;18.216;2023-03-14T06:50:49;4.30;99.90
12682;DHT22;6405;59.208;18.216;2023-03-14T06:53:15;4.40;99.90
12682;DHT22;6405;59.208;18.216;2023-03-14T06:55:40;4.30;99.90
12682;DHT22;6405;59.208;18.216;2023-03-14T06:58:06;4.30;99.90
12682;DHT22;6405;59.208;18.216;2023-03-14T07:00:33;4.30;99.90
12682;DHT22;6405;59.208;18.216;2023-03-14T07:02:59;4.30;99.90
12682;DHT22;6405;59.208;18.216;2023-03-14T07:05:25;4.30;99.90
12682;DHT22;6405;59.208;18.216;2023-03-14T07:07:51;4.30;99.90
12682;DHT22;6405;59.208;18.216;2023-03-14T07:10:16;4.30;99.90
12682;DHT22;6405;59.208;18.216;2023-03-14T07:12:42;4.30;99.90
12682;DHT22;6405;59.208;18.216;2023-03-14T07:15:09;4.40;99.90
12682;DHT22;6405;59.208;18.216;2023-03-14T07:17:34;4.50;99.90
12682;DHT22;6405;59.208;18.216;2023-03-14T07:20:00;4.70;99.90
12682;DHT22;6405;59.208;18.216;2023-03-14T07:22:26;4.80;99.90
12682;DHT22;6405;59.208;18.216;2023-03-14T07:24:52;4.80;99.90
12682;DHT22;6405;59.208;18.216;2023-03-14T07:27:17;4.70;99.90
12682;DHT22;6405;59.208;18.216;2023-03-14T07:29:43;4.70;99.90
12682;DHT22;6405;59.208;18.216;2023-03-14T07:32:08;4.70;99.90
12682;DHT22;6405;59.208;18.216;2023-03-14T07:34:35;4.60;99.90
12682;DHT22;6405;59.208;18.216;2023-03-14T07:37:00;4.50;99.90
12682;DHT22;6405;59.208;18.216;2023-03-14T07:39:26;4.50;99.90
12682;DHT22;6405;59.208;18.216;2023-03-14T07:41:52;4.50;99.90
12682;DHT22;6405;59.208;18.216;2023-03-14T07:44:17;4.50;99.90
12682;DHT22;6405;59.208;18.216;2023-03-14T07:46:43;4.40;99.90
12682;DHT22;6405;59.208;18.216;2023-03-14T07:49:08;4.50;99.90
12682;DHT22;6405;59.208;18.216;2023-03-14T07:51:34;4.50;99.90
12682;DHT22;6405;59.208;18.216;2023-03-14T07:54:00;4.50;99.90
12682;DHT22;6405;59.208;18.216;2023-03-14T07:56:25;4.60;99.90
12682;DHT22;6405;59.208;18.216;2023-03-14T07:58:51;4.60;99.90
12682;DHT22;6405;59.208;18.216;2023-03-14T08:01:16;4.70;99.90
12682;DHT22;6405;59.208;18.216;2023-03-14T08:03:42;4.70;99.90
12682;DHT22;6405;59.208;18.216;2023-03-14T08:06:08;4.70;99.90
12682;DHT22;6405;59.208;18.216;2023-03-14T08:08:33;4.70;99.90
12682;DHT22;6405;59.208;18.216;2023-03-14T08:11:04;4.80;99.90
12682;DHT22;6405;59.208;18.216;2023-03-14T08:13:30;4.80;99.90
12682;DHT22;6405;59.208;18.216;2023-03-14T08:15:55;4.80;99.90
12682;DHT22;6405;59.208;18.216;2023-03-14T08:18:21;4.80;99.90
12682;DHT22;6405;59.208;18.216;2023-03-14T08:20:46;5.00;99.90
12682;DHT22;6405;59.208;18.216;2023-03-14T08:23:12;5.00;99.90
12682;DHT22;6405;59.208;18.216;2023-03-14T08:25:38;5.10;99.90
12682;DHT22;6405;59.208;18.216;2023-03-14T08:28:04;5.20;99.90
12682;DHT22;6405;59.208;18.216;2023-03-14T08:30:30;5.40;99.90
12682;DHT22;6405;59.208;18.216;2023-03-14T08:32:58;5.50;99.90
12682;DHT22;6405;59.208;18.216;2023-03-14T08:35:25;5.50;99.90
12682;DHT22;6405;59.208;18.216;2023-03-14T08:37:51;5.60;99.90
12682;DHT22;6405;59.208;18.216;2023-03-14T08:40:18;5.80;99.90
12682;DHT22;6405;59.208;18.216;2023-03-14T08:42:44;5.70;99.90
12682;DHT22;6405;59.208;18.216;2023-03-14T08:45:15;5.70;99.90
12682;DHT22;6405;59.208;18.216;2023-03-14T08:47:42;5.50;99.90
12682;DHT22;6405;59.208;18.216;2023-03-14T08:50:09;5.50;99.90
12682;DHT22;6405;59.208;18.216;2023-03-14T08:52:35;5.60;99.90
12682;DHT22;6405;59.208;18.216;2023-03-14T08:55:03;5.60;99.90
12682;DHT22;6405;59.208;18.216;2023-03-14T08:57:29;5.60;99.90
12682;DHT22;6405;59.208;18.216;2023-03-14T08:59:55;5.50;99.90
12682;DHT22;6405;59.208;18.216;2023-03-14T09:02:22;5.60;99.90
12682;DHT22;6405;59.208;18.216;2023-03-14T09:04:49;5.80;99.90
12682;DHT22;6405;59.208;18.216;2023-03-14T09:07:15;5.90;99.90
12682;DHT22;6405;59.208;18.216;2023-03-14T09:09:41;6.00;99.90
12682;DHT22;6405;59.208;18.216;2023-03-14T09:12:07;6.20;99.90
12682;DHT22;6405;59.208;18.216;2023-03-14T09:14:32;6.40;99.90
12682;DHT22;6405;59.208;18.216;2023-03-14T09:16:58;6.40;99.90
12682;DHT22;6405;59.208;18.216;2023-03-14T09:19:24;6.40;99.90
12682;DHT22;6405;59.208;18.216;2023-03-14T09:21:50;6.20;99.90
12682;DHT22;6405;59.208;18.216;2023-03-14T09:24:16;6.30;99.90
12682;DHT22;6405;59.208;18.216;2023-03-14T09:26:42;6.30;99.90
12682;DHT22;6405;59.208;18.216;2023-03-14T09:29:08;6.40;99.90
12682;DHT22;6405;59.208;18.216;2023-03-14T09:31:34;6.50;99.90
12682;DHT22;6405;59.208;18.216;2023-03-14T09:34:00;6.70;99.90
12682;DHT22;6405;59.208;18.216;2023-03-14T09:36:26;6.90;99.90
12682;DHT22;6405;59.208;18.216;2023-03-14T09:38:52;7.10;99.90
12682;DHT22;6405;59.208;18.216;2023-03-14T09:41:23;7.30;99.90
12682;DHT22;6405;59.208;18.216;2023-03-14T09:43:58;7.50;99.90
12682;DHT22;6405;59.208;18.216;2023-03-14T09:46:26;7.50;99.90
12682;DHT22;6405;59.208;18.216;2023-03-14T09:48:52;7.30;99.90
12682;DHT22;6405;59.208;18.216;2023-03-14T09:51:20;7.40;99.90
12682;DHT22;6405;59.208;18.216;2023-03-14T09:53:49;7.50;99.90
12682;DHT22;6405;59.208;18.216;2023-03-14T09:56:23;7.50;99.90
12682;DHT22;6405;59.208;18.216;2023-03-14T09:58:58;7.50;99.90
12682;DHT22;6405;59.208;18.216;2023-03-14T10:01:31;7.60;99.90
12682;DHT22;6405;59.208;18.216;2023-03-14T10:04:12;7.60;99.90
12682;DHT22;6405;59.208;18.216;2023-03-14T10:06:40;7.60;99.90
12682;DHT22;6405;59.208;18.216;2023-03-14T10:09:05;7.50;99.90
12682;DHT22;6405;59.208;18.216;2023-03-14T10:11:31;7.50;99.90
12682;DHT22;6405;59.208;18.216;2023-03-14T10:14:10;7.70;99.90
12682;DHT22;6405;59.208;18.216;2023-03-14T10:16:43;7.90;99.90
12682;DHT22;6405;59.208;18.216;2023-03-14T10:19:14;8.00;99.90
12682;DHT22;6405;59.208;18.216;2023-03-14T10:21:42;8.10;99.90
12682;DHT22;6405;59.208;18.216;2023-03-14T10:24:27;7.90;99.90
12682;DHT22;6405;59.208;18.216;2023-03-14T10:27:03;7.70;99.90
12682;DHT22;6405;59.208;18.216;2023-03-14T10:29:33;7.70;99.90
12682;DHT22;6405;59.208;18.216;2023-03-14T10:32:05;7.70;99.90
12682;DHT22;6405;59.208;18.216;2023-03-14T10:34:35;7.70;99.90
12682;DHT22;6405;59.208;18.216;2023-03-14T10:37:18;7.90;99.90
12682;DHT22;6405;59.208;18.216;2023-03-14T10:39:52;8.00;99.90
12682;DHT22;6405;59.208;18.216;2023-03-14T10:42:26;8.00;99.90
12682;DHT22;6405;59.208;18.216;2023-03-14T10:44:57;8.10;99.90
12682;DHT22;6405;59.208;18.216;2023-03-14T10:47:26;8.10;99.90
12682;DHT22;6405;59.208;18.216;2023-03-14T10:49:52;7.90;99.90
12682;DHT22;6405;59.208;18.216;2023-03-14T10:52:27;7.80;99.90
12682;DHT22;6405;59.208;18.216;2023-03-14T10:55:03;7.60;99.90
12682;DHT22;6405;59.208;18.216;2023-03-14T10:57:41;7.70;99.90
12682;DHT22;6405;59.208;18.216;2023-03-14T11:00:22;7.80;99.90
12682;DHT22;6405;59.208;18.216;2023-03-14T11:02:58;7.80;99.90
12682;DHT22;6405;59.208;18.216;2023-03-14T11:08:13;7.70;99.90
12682;DHT22;6405;59.208;18.216;2023-03-14T11:10:46;7.80;99.90
12682;DHT22;6405;59.208;18.216;2023-03-14T11:13:51;7.80;99.90
12682;DHT22;6405;59.208;18.216;2023-03-14T11:22:05;7.80;99.90
12682;DHT22;6405;59.208;18.216;2023-03-14T11:25:12;7.70;99.90
12682;DHT22;6405;59.208;18.216;2023-03-14T11:27:53;7.60;99.90
12682;DHT22;6405;59.208;18.216;2023-03-14T11:30:30;7.40;99.90
12682;DHT22;6405;59.208;18.216;2023-03-14T11:33:26;7.00;99.90
12682;DHT22;6405;59.208;18.216;2023-03-14T11:35:55;6.90;99.90
12682;DHT22;6405;59.208;18.216;2023-03-14T11:40:57;6.50;99.90
12682;DHT22;6405;59.208;18.216;2023-03-14T11:43:35;6.30;99.90
12682;DHT22;6405;59.208;18.216;2023-03-14T11:46:18;6.20;99.90
12682;DHT22;6405;59.208;18.216;2023-03-14T11:51:24;6.10;99.90
12682;DHT22;6405;59.208;18.216;2023-03-14T11:54:07;6.10;99.90
12682;DHT22;6405;59.208;18.216;2023-03-14T11:56:43;6.00;99.90
12682;DHT22;6405;59.208;18.216;2023-03-14T11:59:21;5.90;99.90
12682;DHT22;6405;59.208;18.216;2023-03-14T12:02:35;5.90;99.90
12682;DHT22;6405;59.208;18.216;2023-03-14T12:07:39;5.80;99.90
12682;DHT22;6405;59.208;18.216;2023-03-14T12:10:08;5.70;99.90
12682;DHT22;6405;59.208;18.216;2023-03-14T12:12:34;5.70;99.90
12682;DHT22;6405;59.208;18.216;2023-03-14T12:15:02;5.60;99.90
12682;DHT22;6405;59.208;18.216;2023-03-14T12:17:40;5.60;99.90
12682;DHT22;6405;59.208;18.216;2023-03-14T12:20:15;5.60;99.90
12682;DHT22;6405;59.208;18.216;2023-03-14T12:22:53;5.60;99.90
12682;DHT22;6405;59.208;18.216;2023-03-14T12:25:30;5.60;99.90
12682;DHT22;6405;59.208;18.216;2023-03-14T12:30:29;5.70;99.90
12682;DHT22;6405;59.208;18.216;2023-03-14T12:43:30;5.90;99.90
12682;DHT22;6405;59.208;18.216;2023-03-14T12:51:39;5.60;99.90
12682;DHT22;6405;59.208;18.216;2023-03-14T12:56:54;5.70;99.90
12682;DHT22;6405;59.208;18.216;2023-03-14T12:59:34;5.80;99.90
12682;DHT22;6405;59.208;18.216;2023-03-14T13:02:20;5.70;99.90
12682;DHT22;6405;59.208;18.216;2023-03-14T13:05:16;5.60;99.90
12682;DHT22;6405;59.208;18.216;2023-03-14T13:13:30;5.80;99.90
12682;DHT22;6405;59.208;18.216;2023-03-14T13:15:55;5.80;99.90
12682;DHT22;6405;59.208;18.216;2023-03-14T13:18:41;5.80;99.90
12682;DHT22;6405;59.208;18.216;2023-03-14T13:21:21;5.80;99.90
12682;DHT22;6405;59.208;18.216;2023-03-14T13:23:56;5.80;99.90
12682;DHT22;6405;59.208;18.216;2023-03-14T13:26:24;5.70;99.90
12682;DHT22;6405;59.208;18.216;2023-03-14T13:28:50;5.70;99.90
12682;DHT22;6405;59.208;18.216;2023-03-14T13:31:24;5.70;99.90
12682;DHT22;6405;59.208;18.216;2023-03-14T13:34:01;5.60;99.90
12682;DHT22;6405;59.208;18.216;2023-03-14T13:36:27;5.50;99.90
12682;DHT22;6405;59.208;18.216;2023-03-14T13:39:00;5.60;99.90
12682;DHT22;6405;59.208;18.216;2023-03-14T13:41:27;5.50;99.90
12682;DHT22;6405;59.208;18.216;2023-03-14T13:44:02;5.50;99.90
12682;DHT22;6405;59.208;18.216;2023-03-14T13:46:29;5.40;99.90
12682;DHT22;6405;59.208;18.216;2023-03-14T13:48:57;5.30;99.90
12682;DHT22;6405;59.208;18.216;2023-03-14T13:51:24;5.30;99.90
12682;DHT22;6405;59.208;18.216;2023-03-14T13:53:54;5.30;99.90
12682;DHT22;6405;59.208;18.216;2023-03-14T13:56:26;5.30;99.90
12682;DHT22;6405;59.208;18.216;2023-03-14T13:58:53;5.30;99.90
12682;DHT22;6405;59.208;18.216;2023-03-14T14:01:29;5.30;99.90
12682;DHT22;6405;59.208;18.216;2023-03-14T14:03:57;5.30;99.90
12682;DHT22;6405;59.208;18.216;2023-03-14T14:06:28;5.20;99.90
12682;DHT22;6405;59.208;18.216;2023-03-14T14:08:56;5.10;99.90
12682;DHT22;6405;59.208;18.216;2023-03-14T14:14:32;5.00;99.90
12682;DHT22;6405;59.208;18.216;2023-03-14T14:17:00;4.90;99.90
12682;DHT22;6405;59.208;18.216;2023-03-14T14:19:28;4.80;99.90
12682;DHT22;6405;59.208;18.216;2023-03-14T14:21:56;4.70;99.90
12682;DHT22;6405;59.208;18.216;2023-03-14T14:24:24;4.60;99.90
12682;DHT22;6405;59.208;18.216;2023-03-14T14:26:52;4.60;99.90
12682;DHT22;6405;59.208;18.216;2023-03-14T14:29:26;4.50;99.90
12682;DHT22;6405;59.208;18.216;2023-03-14T14:32:12;4.50;99.90
12682;DHT22;6405;59.208;18.216;2023-03-14T14:34:40;4.50;99.90
12682;DHT22;6405;59.208;18.216;2023-03-14T14:37:22;4.40;99.90
12682;DHT22;6405;59.208;18.216;2023-03-14T14:39:49;4.40;99.90
12682;DHT22;6405;59.208;18.216;2023-03-14T14:42:17;4.30;99.90
12682;DHT22;6405;59.208;18.216;2023-03-14T14:44:44;4.20;99.90
12682;DHT22;6405;59.208;18.216;2023-03-14T14:47:15;4.20;99.90
12682;DHT22;6405;59.208;18.216;2023-03-14T14:49:43;4.20;99.90
12682;DHT22;6405;59.208;18.216;2023-03-14T14:52:17;4.10;99.90
12682;DHT22;6405;59.208;18.216;2023-03-14T14:54:57;4.00;99.90
12682;DHT22;6405;59.208;18.216;2023-03-14T14:57:24;4.00;99.90
12682;DHT22;6405;59.208;18.216;2023-03-14T14:59:56;3.90;99.90
12682;DHT22;6405;59.208;18.216;2023-03-14T15:04:55;3.70;99.90
12682;DHT22;6405;59.208;18.216;2023-03-14T15:07:21;3.60;99.90
12682;DHT22;6405;59.208;18.216;2023-03-14T15:09:47;3.50;99.90
12682;DHT22;6405;59.208;18.216;2023-03-14T15:12:12;3.40;99.90
12682;DHT22;6405;59.208;18.216;2023-03-14T15:14:38;3.40;99.90
12682;DHT22;6405;59.208;18.216;2023-03-14T15:17:08;3.30;99.90
12682;DHT22;6405;59.208;18.216;2023-03-14T15:19:34;3.20;99.90
12682;DHT22;6405;59.208;18.216;2023-03-14T15:22:00;3.10;99.90
12682;DHT22;6405;59.208;18.216;2023-03-14T15:24:26;3.00;99.90
12682;DHT22;6405;59.208;18.216;2023-03-14T15:26:51;2.90;99.90
12682;DHT22;6405;59.208;18.216;2023-03-14T15:29:17;2.80;99.90
12682;DHT22;6405;59.208;18.216;2023-03-14T15:31:43;2.70;99.90
12682;DHT22;6405;59.208;18.216;2023-03-14T15:34:09;2.60;99.90
12682;DHT22;6405;59.208;18.216;2023-03-14T15:36:36;2.60;99.90
12682;DHT22;6405;59.208;18.216;2023-03-14T15:39:04;2.50;99.90
12682;DHT22;6405;59.208;18.216;2023-03-14T15:41:30;2.50;99.90
12682;DHT22;6405;59.208;18.216;2023-03-14T15:43:56;2.30;99.90
12682;DHT22;6405;59.208;18.216;2023-03-14T15:46:21;2.30;99.90
12682;DHT22;6405;59.208;18.216;2023-03-14T15:48:48;2.30;99.90
12682;DHT22;6405;59.208;18.216;2023-03-14T15:51:15;2.20;99.90
12682;DHT22;6405;59.208;18.216;2023-03-14T15:53:40;2.20;99.90
12682;DHT22;6405;59.208;18.216;2023-03-14T15:56:09;2.10;99.90
12682;DHT22;6405;59.208;18.216;2023-03-14T15:58:36;2.10;99.90
12682;DHT22;6405;59.208;18.216;2023-03-14T16:01:02;2.10;99.90
12682;DHT22;6405;59.208;18.216;2023-03-14T16:03:31;2.00;99.90
12682;DHT22;6405;59.208;18.216;2023-03-14T16:05:56;2.00;99.90
12682;DHT22;6405;59.208;18.216;2023-03-14T16:08:23;2.00;99.90
12682;DHT22;6405;59.208;18.216;2023-03-14T16:10:51;1.90;99.90
12682;DHT22;6405;59.208;18.216;2023-03-14T16:13:17;1.90;99.90
12682;DHT22;6405;59.208;18.216;2023-03-14T16:15:53;1.90;99.90
12682;DHT22;6405;59.208;18.216;2023-03-14T16:18:18;1.90;99.90
12682;DHT22;6405;59.208;18.216;2023-03-14T16:20:51;1.90;99.90
12682;DHT22;6405;59.208;18.216;2023-03-14T16:23:17;1.80;99.90
12682;DHT22;6405;59.208;18.216;2023-03-14T16:25:44;1.80;99.90
12682;DHT22;6405;59.208;18.216;2023-03-14T16:28:09;1.70;99.90
12682;DHT22;6405;59.208;18.216;2023-03-14T16:30:35;1.70;99.90
12682;DHT22;6405;59.208;18.216;2023-03-14T16:33:00;1.70;99.90
12682;DHT22;6405;59.208;18.216;2023-03-14T16:35:26;1.70;99.90
12682;DHT22;6405;59.208;18.216;2023-03-14T16:37:53;1.70;99.90
12682;DHT22;6405;59.208;18.216;2023-03-14T16:40:19;1.70;99.90
12682;DHT22;6405;59.208;18.216;2023-03-14T16:42:44;1.70;99.90
12682;DHT22;6405;59.208;18.216;2023-03-14T16:45:10;1.70;99.90
12682;DHT22;6405;59.208;18.216;2023-03-14T16:47:36;1.60;99.90